x

Jonesport, Me - 20 Nm Se Of Jonesport, Me (44027) Wave Buoy

7:50am - Sun 1st Mar 2015 All times are AST. -4 hours from GMT.

  • Sig Wave height 2.6ft
  • Peak Period 9s
  • Average Period 4s
  • Wind
    9mph, 11mph gusts
  • Air Temp 24°f
  • Sea Pressure 1037.7mb
  • Jonesport, Me - 20 Nm Se Of Jonesport, Me
  • Jonesport, Me - 20 Nm Se Of Jonesport, Me

More Historic Weather Station data

Upgrade to MSW Pro to gain access to the past 30 days of data for over 8000 Wavebouys and Weather Stations around the globe.

Join Pro

Comparision Forecast

View Surf forecast
   
Sun 03/01 7:50am 2.5ft 9s 4s 9 11 mph 1037.7mb 24f
6:50am 2.5ft 10s 4s 11 16 mph 1038.4mb 25f
5:50am 2.5ft 9s 4s 11 18 mph 1038.4mb 25f
4:50am 2.5ft 9s 4s 13 18 mph 1038.6mb 26f
3:50am 2.5ft 10s 4s 16 18 mph 1038.4mb 26f
2:50am 3.5ft 10s 4s 16 20 mph 1038.5mb 26f
1:50am 3.5ft 11s 4s 20 22 mph 1038.1mb 28f
12:50am 3.5ft 10s 4s 20 22 mph 1037.6mb 30f
Sat 02/28 11:50pm 3ft 11s 4s 18 25 mph 1037.5mb 30f
10:50pm 3.5ft 11s 4s 18 22 mph 1037.6mb 29f
9:50pm 3.5ft 5s 4s 16 20 mph 1037.5mb 28f
8:50pm 4ft 10s 4s 18 25 mph 1037.1mb 28f
7:50pm 4ft 5s 4s 20 25 mph 1037mb 28f
6:50pm 4ft 10s 4s 22 29 mph 1036.9mb 27f
5:50pm 3.5ft 11s 4s 22 29 mph 1036.7mb 27f
4:50pm 3.5ft 11s 4s 22 29 mph 1036.8mb 27f
3:50pm 2.5ft 11s 5s 16 22 mph 1037.2mb 25f
2:50pm 3ft 10s 6s 13 18 mph 1037.6mb 23f
1:50pm 2.5ft 11s 6s 11 16 mph 1038mb 22f
12:50pm 2.5ft 11s 6s 11 18 mph 1038.6mb 22f
11:50am 3ft 11s 6s 4 11 mph 1038.9mb 20f
10:50am 3ft 10s 5s 7 11 mph 1038.8mb 19f
9:50am 3.5ft 11s 6s 9 16 mph 1038.4mb 19f
8:50am 3.5ft 11s 6s 13 18 mph 1037.7mb 18f
7:50am 4ft 11s 6s 13 20 mph 1036.8mb 18f
6:50am 4ft 11s 6s 11 18 mph 1035.7mb 18f
5:50am 4.5ft 11s 6s 16 22 mph 1034.8mb 18f
4:50am 4ft 11s 5s 16 22 mph 1034.4mb 18f
3:50am 4ft 11s 5s 20 25 mph 1033.7mb 18f
2:50am 4.5ft 11s 5s 20 25 mph 1033.1mb 19f
1:50am 4.5ft 11s 5s 20 25 mph 1032.2mb 20f
12:50am 4.5ft 11s 6s 20 25 mph 1031.3mb 21f
Fri 02/27 11:50pm 4.5ft 11s 5s 20 25 mph 1030.4mb 24f
10:50pm 4ft 11s 6s 18 22 mph 1029.7mb 25f
9:50pm 4.5ft 12s 6s 18 22 mph 1029mb 25f
8:50pm 5ft 12s 7s 18 20 mph 1028.4mb 24f
7:50pm 4.5ft 11s 7s 16 20 mph 1027.6mb 24f
6:50pm 4.5ft 12s 7s 13 18 mph 1026.9mb 22f
5:50pm 5ft 12s 8s 13 18 mph 1026.3mb 22f
4:50pm 4.5ft 12s 8s 16 20 mph 1025.9mb 21f
3:50pm 4.5ft 12s 9s 13 20 mph 1025.7mb 20f
2:50pm 4ft 12s 8s 11 16 mph 1025.5mb 17f
1:50pm 2.5ft 13s 6s 9 16 mph 1025.4mb 16f
12:50pm 2.5ft 14s 5s 9 13 mph 1026mb 15f
11:50am 2.5ft 13s 4s 11 13 mph 1026.1mb 14f
10:50am 2.5ft 11s 4s 11 16 mph 1026.2mb 13f
9:50am 3ft 4s 4s 11 18 mph 1025.9mb 13f
8:50am 3ft 11s 4s 13 18 mph 1024.8mb 13f
7:50am 3ft 4s 4s 13 18 mph 1023.6mb 13f
6:50am 3.5ft 4s 4s 13 18 mph 1022.2mb 14f
5:50am 3.5ft 4s 4s 16 20 mph 1020.8mb 16f
4:50am 3.5ft 4s 4s 16 20 mph 1019.5mb 16f
3:50am 3ft 9s 4s 18 20 mph 1019.3mb 17f
2:50am 2.5ft 10s 4s 16 20 mph 1018.8mb 18f
1:50am 3ft 11s 4s 18 20 mph 1018.5mb 19f
12:50am 2.5ft 4s 4s 18 20 mph 1018mb 19f
Thu 02/26 11:50pm 2.5ft 11s 4s 16 20 mph 1017.3mb 20f
10:50pm 2.5ft 11s 4s 16 20 mph 1016.6mb 20f
9:50pm 2.5ft 11s 4s 18 20 mph 1015.8mb 19f
8:50pm 2.5ft 10s 4s 16 22 mph 1015.5mb 19f
7:50pm 2.5ft 8s 4s 13 18 mph 1015.5mb 19f
6:50pm 2.5ft 8s 5s 13 18 mph 1015.4mb 18f
5:50pm 2.5ft 9s 5s 9 13 mph 1015.6mb 18f
4:50pm 2.5ft 8s 5s 11 16 mph 1015.2mb 17f
3:50pm 2.5ft 9s 5s 11 16 mph 1015.8mb 17f
2:50pm 3ft 10s 5s 11 16 mph 1016.3mb 16f
1:50pm 3ft 11s 5s 11 18 mph 1017.1mb 15f
12:50pm 3.5ft 11s 5s 13 16 mph 1018.2mb 15f
11:50am 3.5ft 11s 5s 11 16 mph 1018.9mb 14f
10:50am 4ft 4s 4s 16 18 mph 1019mb 13f
9:50am 4.5ft 5s 5s 18 25 mph 1019.5mb 14f
8:50am 5ft 5s 5s 18 22 mph 1018.8mb 15f
7:50am 5ft 5s 5s 22 29 mph 1018.1mb 16f
6:50am 5.5ft 5s 5s 22 27 mph 1016.5mb 18f
5:50am 6ft 8s 5s 25 29 mph 1015.8mb 20f
4:50am 6ft 10s 5s 22 27 mph 1014.9mb 22f
3:50am 6ft 10s 5s 22 29 mph 1014.4mb 24f
2:50am 6ft 10s 5s 22 29 mph 1013.5mb 24f
1:50am 6ft 5s 5s 25 29 mph 1012.6mb 25f
12:50am 6ft 10s 5s 27 31 mph 1012.2mb 26f
Wed 02/25 11:50pm 5ft 10s 5s 25 29 mph 1011mb 29f
10:50pm 4.5ft 10s 5s 22 29 mph 1010.1mb 31f
9:50pm 4.5ft 9s 5s 18 22 mph 1008.4mb 31f
8:50pm 4.5ft 7s 5s 13 18 mph 1007.5mb 30f
7:50pm 5ft 5s 5s 18 22 mph 1006.7mb 30f
6:50pm 5ft 7s 5s 20 22 mph 1005.4mb 29f
5:50pm 5ft 7s 5s 22 29 mph 1003.7mb 29f
4:50pm 5ft 7s 5s 25 27 mph 1002mb 29f
3:50pm 6ft 7s 5s 20 27 mph 1001.1mb 29f
2:50pm 6ft 7s 5s 25 29 mph 999.2mb 29f
1:50pm 5.5ft 7s 5s 27 31 mph 998.3mb 29f